| time (UTC) | temp F | wind direction | speed MPH | gust MPH | rain 1hr in | rain 24hr in | rain mn in | humidity % | barometer mb |
| 20260510141520 | 73 | 24 | 0.0 | 0.0 | 0.00 | 0.15 | 0.15 | 53 | 1010.0 |
| 20260510140015 | 73 | 317 | 0.0 | 0.0 | 0.00 | 0.15 | 0.15 | 53 | 1010.0 |
| 20260510134554 | 72 | 331 | 0.0 | 0.0 | 0.00 | 0.15 | 0.15 | 54 | 1010.0 |
| 20260510133056 | 72 | 39 | 0.0 | 0.0 | 0.00 | 0.15 | 0.15 | 54 | 1009.9 |
| 20260510131547 | 72 | 333 | 0.0 | 0.0 | 0.00 | 0.15 | 0.15 | 55 | 1010.2 |
| 20260510130045 | 72 | 347 | 0.0 | 0.0 | 0.00 | 0.15 | 0.15 | 54 | 1010.2 |
| 20260510124551 | 73 | 328 | 0.0 | 0.0 | 0.00 | 0.15 | 0.15 | 54 | 1010.2 |
| 20260510123026 | 72 | 309 | 0.0 | 0.0 | 0.00 | 0.15 | 0.15 | 55 | 1010.3 |
| 20260510121521 | 72 | 342 | 0.0 | 0.0 | 0.00 | 0.15 | 0.15 | 54 | 1010.3 |
| 20260510120023 | 72 | 5 | 0.0 | 0.0 | 0.00 | 0.15 | 0.15 | 54 | 1010.2 |
| 20260510114543 | 71 | 12 | 0.0 | 0.0 | 0.00 | 0.15 | 0.15 | 54 | 1010.3 |
| 20260510113037 | 70 | 13 | 0.0 | 0.0 | 0.00 | 0.15 | 0.15 | 55 | 1010.4 |
| 20260510111554 | 70 | 42 | 0.0 | 0.0 | 0.00 | 0.15 | 0.15 | 53 | 1010.4 |
| 20260510110028 | 70 | 360 | 0.0 | 0.0 | 0.00 | 0.15 | 0.15 | 52 | 1010.6 |
| 20260510104538 | 69 | 300 | 0.0 | 0.0 | 0.00 | 0.15 | 0.15 | 53 | 1010.7 |
| 20260510103031 | 69 | 321 | 0.0 | 0.0 | 0.00 | 0.15 | 0.15 | 53 | 1010.9 |
| 20260510101520 | 69 | 333 | 0.0 | 0.0 | 0.00 | 0.15 | 0.15 | 54 | 1010.8 |
| 20260510100015 | 69 | 312 | 0.0 | 0.0 | 0.00 | 0.15 | 0.15 | 50 | 1010.9 |
| 20260510094544 | 69 | 323 | 0.0 | 0.0 | 0.00 | 0.15 | 0.15 | 47 | 1010.9 |
| 20260510093033 | 69 | 5 | 0.0 | 0.0 | 0.00 | 0.15 | 0.15 | 44 | 1010.9 |
| 20260510091546 | 68 | 5 | 0.0 | 0.0 | 0.00 | 0.15 | 0.15 | 25 | 1011.0 |
| 20260510090024 | 66 | 5 | 0.0 | 0.0 | 0.00 | 0.15 | 0.15 | 1 | 1010.9 |
| 20260510084554 | 66 | 55 | 0.0 | 0.0 | 0.00 | 0.15 | 0.15 | 1 | 1010.9 |
| 20260510083039 | 66 | 51 | 0.0 | 0.0 | 0.00 | 0.15 | 0.15 | 1 | 1010.9 |